De Soto, Iowa
Current Conditions -  °F | °C
As of 1:54 PM on Wednesday 28 Jan 2015 (Local Time) from KDSM Reporting Station
Overcast Overcast  
Wind Chill: 41°   Ceiling: 26000
Heat Index: 48°   Visibility: 10mi
Dew Point: 35°   Wind: 20mph
Humidity: 61%   Direction: 160°SSE
Pressure: 29.77"   Gusts: NA
Location:  41.53°N, 94.01°W
Report Text: KDSM 281954Z 16017KT 10SM FEW210 OVC260 09/02 A2977 RMK AO2 SLP086 T00890017
Loading
Personal Weather Stations






























Interactive Weather Map New forecast layout! Learn more

10-Day Weather Forecast

Advertisements
Track Severe Weather on mobile